Terminal Aerodrome Forecast
Issued by NWS Chicago, IL

Home | Current Version | Previous Version | Graphics & Text | Print | Product List | Glossary On
Versions: 1 2 3 4 5 6 7 8 9 10 11 12 13 14 15 16 17 18 19 20 21 22 23 24 25 26 27 28 29 30 31 32 33 34 35 36 37
000
FTUS43 KLOT 012300
TAFRFD
TAF
KRFD 012335Z 0200/0224 01023G33KT 3/4SM -SN BLSN OVC010
      TEMPO 0200/0202 1/2SM SN BLSN
     FM020400 01020G30KT 1 1/2SM -SN BLSN OVC010
     FM020600 35016G23KT 3SM BLSN BKN020 BKN060
     FM021200 33008KT P6SM SCT200
     FM022000 26008KT P6SM SCT200=

USA.gov is the U.S. government's official web portal to all federal, state and local government web resources and services.